Time;durP1;ratioP1;P1;durP2;ratioP2;P2;SDS_P1;SDS_P2;PMS_P1;PMS_P2;Temp;Humidity;BMP_temperature;BMP_pressure;BME280_temperature;BME280_humidity;BME280_pressure;Samples;Min_cycle;Max_cycle;Signal;HPM_P1;HPM_P2
2022/11/06 00:01:12;;;;;;;8.02;6.80;;;10.00;99.90;;;;;;5070442;28;20043;-33
2022/11/06 00:03:38;;;;;;;9.70;7.82;;;10.00;99.90;;;;;;5054227;28;20033;-32
2022/11/06 00:08:54;;;;;;;10.13;6.72;;;10.00;99.90;;;;;;5054307;28;20631;-32
2022/11/06 00:11:20;;;;;;;11.75;7.53;;;10.00;99.90;;;;;;5055475;28;20036;-30
2022/11/06 00:13:51;;;;;;;9.38;7.45;;;9.90;99.90;;;;;;5071653;28;20048;-31
2022/11/06 00:16:18;;;;;;;10.10;7.35;;;10.00;99.90;;;;;;5080324;28;20041;-31
2022/11/06 00:18:44;;;;;;;11.50;7.25;;;9.90;99.90;;;;;;5049450;28;20541;-31
2022/11/06 00:21:25;;;;;;;9.32;7.20;;;9.90;99.90;;;;;;5049880;28;20363;-31
2022/11/06 00:23:52;;;;;;;9.50;7.55;;;9.90;99.90;;;;;;5062279;28;20033;-30
2022/11/06 00:26:21;;;;;;;12.18;7.70;;;9.90;99.90;;;;;;5054467;28;20133;-30
2022/11/06 00:28:47;;;;;;;10.88;7.80;;;9.90;99.90;;;;;;5055294;28;20394;-31
2022/11/06 00:31:16;;;;;;;10.52;7.32;;;9.90;99.90;;;;;;5053412;28;20033;-32
2022/11/06 00:33:42;;;;;;;10.68;7.85;;;9.90;99.90;;;;;;5052541;28;20482;-32
2022/11/06 00:36:11;;;;;;;9.48;7.20;;;9.90;99.90;;;;;;5072296;28;20482;-30
2022/11/06 00:38:36;;;;;;;10.40;7.38;;;9.90;99.90;;;;;;5067423;28;20032;-31
2022/11/06 00:41:04;;;;;;;14.00;8.45;;;9.90;99.90;;;;;;5070034;28;20551;-32
2022/11/06 00:43:29;;;;;;;12.73;6.97;;;9.90;99.90;;;;;;5045633;28;20037;-31
2022/11/06 00:46:09;;;;;;;10.95;8.05;;;9.90;99.90;;;;;;5063107;28;20040;-31
2022/11/06 00:48:36;;;;;;;11.25;7.47;;;9.90;99.90;;;;;;5051482;28;20147;-32
2022/11/06 00:51:17;;;;;;;9.63;7.63;;;9.90;99.90;;;;;;5070262;28;20037;-32
2022/11/06 00:53:44;;;;;;;9.60;7.07;;;9.90;99.90;;;;;;5066491;28;20033;-32
2022/11/06 00:56:12;;;;;;;9.60;6.82;;;9.90;99.90;;;;;;5068758;28;20029;-34
2022/11/06 00:58:39;;;;;;;14.20;7.93;;;9.80;99.90;;;;;;5070398;28;20041;-33
2022/11/06 01:01:09;;;;;;;12.60;7.90;;;9.90;99.90;;;;;;5042027;28;20095;-31
2022/11/06 01:03:36;;;;;;;10.60;7.45;;;9.80;99.90;;;;;;5061244;28;20040;-32
2022/11/06 01:06:16;;;;;;;10.45;6.88;;;9.80;99.90;;;;;;5065263;28;20075;-32
2022/11/06 01:08:42;;;;;;;11.73;7.50;;;9.80;99.90;;;;;;5055156;28;20063;-32
2022/11/06 01:11:09;;;;;;;10.73;7.00;;;9.80;99.90;;;;;;5061970;28;20043;-32
2022/11/06 01:13:35;;;;;;;9.25;6.97;;;9.80;99.90;;;;;;5054343;28;20037;-32
2022/11/06 01:16:04;;;;;;;10.00;7.78;;;9.90;99.90;;;;;;5069739;28;20111;-31
2022/11/06 01:18:30;;;;;;;13.05;6.95;;;9.90;99.90;;;;;;5052855;28;20394;-32
2022/11/06 01:20:56;;;;;;;9.15;6.82;;;9.90;99.90;;;;;;5069245;28;20029;-31
2022/11/06 01:23:21;;;;;;;9.95;6.60;;;9.90;99.90;;;;;;5052103;28;20445;-33
2022/11/06 01:26:04;;;;;;;10.70;7.80;;;9.90;99.90;;;;;;5053372;28;20036;-32
2022/11/06 01:28:31;;;;;;;9.90;6.82;;;9.90;99.90;;;;;;5063783;28;20029;-31
2022/11/06 01:31:08;;;;;;;11.85;7.38;;;9.90;99.90;;;;;;5046599;28;20102;-32
2022/11/06 01:33:34;;;;;;;11.95;7.68;;;9.90;99.90;;;;;;5049913;28;20194;-34
2022/11/06 01:36:00;;;;;;;10.75;6.85;;;9.80;99.90;;;;;;5069169;28;20103;-32
2022/11/06 01:38:26;;;;;;;10.75;7.28;;;9.80;99.90;;;;;;5060684;28;20056;-31
2022/11/06 01:40:52;;;;;;;11.25;8.30;;;9.80;99.90;;;;;;5052799;28;20036;-33
2022/11/06 01:43:24;;;;;;;8.98;7.15;;;9.80;99.90;;;;;;5044399;28;20048;-32
2022/11/06 01:45:53;;;;;;;10.73;7.47;;;9.80;99.90;;;;;;5069034;28;20131;-31
2022/11/06 01:48:23;;;;;;;10.18;7.40;;;9.70;99.90;;;;;;5070049;28;20489;-33
2022/11/06 01:50:54;;;;;;;10.73;7.35;;;9.70;99.90;;;;;;5050452;28;20101;-31
2022/11/06 01:53:21;;;;;;;9.93;7.45;;;9.70;99.90;;;;;;5065808;28;20133;-32
2022/11/06 01:55:52;;;;;;;10.70;7.53;;;9.70;99.90;;;;;;5061069;28;20044;-32
2022/11/06 01:58:21;;;;;;;8.95;6.90;;;9.70;99.90;;;;;;5055792;28;20068;-34
2022/11/06 02:00:47;;;;;;;13.23;7.13;;;9.70;99.90;;;;;;5039577;28;20044;-33
2022/11/06 02:03:14;;;;;;;11.90;7.20;;;9.70;99.90;;;;;;5051298;28;20083;-32
2022/11/06 02:05:40;;;;;;;9.23;7.35;;;9.70;99.90;;;;;;5053425;28;20118;-32
2022/11/06 02:08:08;;;;;;;11.23;7.40;;;9.70;99.90;;;;;;5051478;28;20044;-33
2022/11/06 02:10:35;;;;;;;10.30;6.63;;;9.70;99.90;;;;;;5064542;28;20045;-32
2022/11/06 02:13:15;;;;;;;10.05;7.13;;;9.70;99.90;;;;;;5072703;28;20032;-30
2022/11/06 02:15:46;;;;;;;10.77;7.18;;;9.70;99.90;;;;;;5069534;28;20037;-31
2022/11/06 02:18:38;;;;;;;9.75;6.55;;;9.70;99.90;;;;;;5058050;28;20438;-31
2022/11/06 02:21:38;;;;;;;9.68;7.35;;;9.70;99.90;;;;;;5073099;28;20169;-31
2022/11/06 02:24:13;;;;;;;11.55;8.23;;;9.70;99.90;;;;;;5059662;28;20064;-31
2022/11/06 02:26:58;;;;;;;14.40;7.82;;;9.70;99.90;;;;;;5069105;28;20039;-33
2022/11/06 02:29:29;;;;;;;10.15;7.50;;;9.70;99.90;;;;;;5069969;28;20066;-34
2022/11/06 02:31:58;;;;;;;10.13;7.90;;;9.60;99.90;;;;;;5058387;28;20037;-31
2022/11/06 02:34:26;;;;;;;12.88;8.73;;;9.60;99.90;;;;;;5072537;28;20040;-31
2022/11/06 02:37:00;;;;;;;11.32;7.80;;;9.50;99.90;;;;;;5047183;28;20115;-30
2022/11/06 02:39:28;;;;;;;14.20;8.38;;;9.50;99.90;;;;;;5064723;28;20098;-32
2022/11/06 02:41:57;;;;;;;10.20;7.95;;;9.50;99.90;;;;;;5072993;28;20094;-32
2022/11/06 02:44:26;;;;;;;9.20;8.27;;;9.50;99.90;;;;;;5055295;28;20044;-32
2022/11/06 02:47:00;;;;;;;11.13;8.45;;;9.50;99.90;;;;;;5047193;28;20037;-32
2022/11/06 02:49:42;;;;;;;12.68;7.50;;;9.50;99.90;;;;;;5069726;28;20040;-33
2022/11/06 02:52:37;;;;;;;9.63;7.32;;;9.50;99.90;;;;;;5069267;28;20068;-31
2022/11/06 02:55:19;;;;;;;11.07;7.85;;;9.40;99.90;;;;;;5052980;28;20066;-33
2022/11/06 02:57:50;;;;;;;10.05;7.15;;;9.40;99.90;;;;;;5070133;28;20478;-31
2022/11/06 03:00:16;;;;;;;11.50;7.60;;;9.40;99.90;;;;;;5071571;28;20067;-32
2022/11/06 03:02:52;;;;;;;12.77;7.55;;;9.40;99.90;;;;;;5048608;28;20511;-33
2022/11/06 03:05:20;;;;;;;12.27;6.97;;;9.40;99.90;;;;;;5073733;28;20071;-31
2022/11/06 03:07:53;;;;;;;11.02;6.85;;;9.40;99.90;;;;;;5071374;28;20049;-32
2022/11/06 03:10:21;;;;;;;10.13;7.05;;;9.40;99.90;;;;;;5072353;28;20044;-30
2022/11/06 03:13:17;;;;;;;11.55;6.85;;;9.40;99.90;;;;;;5057967;28;20032;-30
2022/11/06 03:16:04;;;;;;;12.25;7.18;;;9.40;99.90;;;;;;5059096;28;20660;-30
2022/11/06 03:18:45;;;;;;;9.43;7.45;;;9.40;99.90;;;;;;5059256;28;20108;-32
2022/11/06 03:21:25;;;;;;;9.43;6.60;;;9.40;99.90;;;;;;5054453;28;20489;-30
2022/11/06 03:23:59;;;;;;;10.50;6.47;;;9.40;99.90;;;;;;5046442;28;20048;-31
2022/11/06 03:26:32;;;;;;;10.48;7.10;;;9.40;99.90;;;;;;5069174;28;20029;-31
2022/11/06 03:29:09;;;;;;;8.63;6.55;;;9.40;99.90;;;;;;5054701;28;20178;-31
2022/11/06 03:32:04;;;;;;;12.25;6.43;;;9.40;99.90;;;;;;5052794;28;20037;-30
2022/11/06 03:34:48;;;;;;;8.48;5.68;;;9.40;99.90;;;;;;5069530;28;20124;-32
2022/11/06 03:37:23;;;;;;;12.23;6.65;;;9.40;99.90;;;;;;5071140;28;20032;-30
2022/11/06 03:39:53;;;;;;;9.13;6.05;;;9.40;99.90;;;;;;5043711;28;20044;-31
2022/11/06 03:42:26;;;;;;;11.68;6.45;;;9.50;99.90;;;;;;5071142;28;20421;-30
2022/11/06 03:44:57;;;;;;;10.82;5.88;;;9.50;99.90;;;;;;5071050;28;20386;-30
2022/11/06 03:47:29;;;;;;;11.80;6.20;;;9.50;99.90;;;;;;5064757;28;20060;-31
2022/11/06 03:50:39;;;;;;;10.10;5.78;;;9.50;99.90;;;;;;5062661;28;20123;-32
2022/11/06 03:53:16;;;;;;;10.55;5.88;;;9.50;99.90;;;;;;5048994;28;20045;-31
2022/11/06 03:55:47;;;;;;;8.85;5.78;;;9.50;99.90;;;;;;5054217;28;20486;-31
2022/11/06 03:58:19;;;;;;;6.85;5.43;;;9.50;99.90;;;;;;5052833;28;20367;-31
2022/11/06 04:00:46;;;;;;;8.68;5.90;;;9.50;99.90;;;;;;5050486;28;20046;-30
2022/11/06 04:03:38;;;;;;;8.23;6.03;;;9.50;99.90;;;;;;5068874;28;20040;-30
2022/11/06 04:06:06;;;;;;;7.00;5.13;;;9.50;99.90;;;;;;5065208;28;20075;-31
2022/11/06 04:14:07;;;;;;;9.70;5.75;;;9.50;99.90;;;;;;5077164;28;20407;-31
2022/11/06 04:16:40;;;;;;;11.38;6.13;;;9.50;99.90;;;;;;5051977;28;20032;-31
2022/11/06 04:19:17;;;;;;;8.85;5.38;;;9.40;99.90;;;;;;5063956;28;20386;-31
2022/11/06 04:22:22;;;;;;;9.23;5.30;;;9.40;99.90;;;;;;5064871;28;20032;-32
2022/11/06 04:28:26;;;;;;;12.68;5.78;;;9.50;99.90;;;;;;5074188;28;20129;-31
2022/11/06 04:31:06;;;;;;;10.23;6.03;;;9.40;99.90;;;;;;5048589;28;20464;-31
2022/11/06 04:34:01;;;;;;;9.80;5.88;;;9.40;99.90;;;;;;5044145;28;20032;-33
2022/11/06 04:36:36;;;;;;;8.65;5.63;;;9.40;99.90;;;;;;5038347;28;20464;-31
2022/11/06 04:39:08;;;;;;;8.80;5.47;;;9.40;99.90;;;;;;5068211;28;20051;-30
2022/11/06 04:41:44;;;;;;;9.93;5.78;;;9.30;99.90;;;;;;5051453;28;20036;-30
2022/11/06 04:44:25;;;;;;;10.52;6.35;;;9.30;99.90;;;;;;5052398;28;20037;-30
2022/11/06 04:46:57;;;;;;;8.85;5.40;;;9.30;99.90;;;;;;5070013;28;20055;-30
2022/11/06 04:49:25;;;;;;;8.50;5.72;;;9.30;99.90;;;;;;5060099;28;20123;-31
2022/11/06 04:51:51;;;;;;;7.80;5.93;;;9.20;99.90;;;;;;5046564;28;20107;-31
2022/11/06 04:54:18;;;;;;;10.75;5.15;;;9.20;99.90;;;;;;5058119;28;20043;-30
2022/11/06 04:56:44;;;;;;;8.15;5.63;;;9.20;99.90;;;;;;5053329;28;20322;-31
2022/11/06 04:59:14;;;;;;;7.78;5.63;;;9.20;99.90;;;;;;5074074;28;20444;-32
2022/11/06 05:01:40;;;;;;;7.28;5.78;;;9.20;99.90;;;;;;5057076;28;20033;-31
2022/11/06 05:04:05;;;;;;;10.82;6.40;;;9.20;99.90;;;;;;5048245;28;20398;-34
2022/11/06 05:06:31;;;;;;;9.05;6.07;;;9.20;99.90;;;;;;5076872;28;20028;-31
2022/11/06 05:08:57;;;;;;;9.23;5.45;;;9.20;99.90;;;;;;5052241;28;20157;-30
2022/11/06 05:11:23;;;;;;;8.85;4.75;;;9.20;99.90;;;;;;5053705;28;20056;-31
2022/11/06 05:13:49;;;;;;;9.85;5.45;;;9.20;99.90;;;;;;5063910;28;20178;-32
2022/11/06 05:16:15;;;;;;;5.93;5.10;;;9.20;99.90;;;;;;5069415;28;20496;-32
2022/11/06 05:18:41;;;;;;;8.85;5.03;;;9.20;99.90;;;;;;5059221;28;20032;-31
2022/11/06 05:23:51;;;;;;;10.60;5.35;;;9.30;99.90;;;;;;5074072;28;20047;-31
2022/11/06 05:26:19;;;;;;;11.70;5.15;;;9.30;99.90;;;;;;5063085;28;20049;-31
2022/11/06 05:28:45;;;;;;;9.40;5.00;;;9.30;99.90;;;;;;5068340;28;20036;-32
2022/11/06 05:31:11;;;;;;;7.40;4.50;;;9.30;99.90;;;;;;5066410;28;20039;-32
2022/11/06 05:33:37;;;;;;;6.38;4.65;;;9.30;99.90;;;;;;5070437;28;20056;-33
2022/11/06 05:36:04;;;;;;;7.88;5.10;;;9.30;99.90;;;;;;5056436;28;20401;-32
2022/11/06 05:38:32;;;;;;;9.88;4.50;;;9.30;99.90;;;;;;5068655;28;20422;-32
2022/11/06 05:40:58;;;;;;;6.65;4.63;;;9.30;99.90;;;;;;5047982;28;20124;-31
2022/11/06 05:43:24;;;;;;;9.25;4.80;;;9.30;99.90;;;;;;5068342;28;20073;-32
2022/11/06 05:45:50;;;;;;;7.57;4.45;;;9.30;99.90;;;;;;5064627;28;20079;-32
2022/11/06 05:48:16;;;;;;;7.47;4.55;;;9.30;99.90;;;;;;5063064;28;20043;-30
2022/11/06 05:50:42;;;;;;;7.32;4.47;;;9.30;99.90;;;;;;5064181;28;20475;-32
2022/11/06 05:53:07;;;;;;;9.63;4.45;;;9.30;99.90;;;;;;5045770;28;20033;-31
2022/11/06 05:55:33;;;;;;;10.20;4.47;;;9.30;99.90;;;;;;5071834;28;20040;-32
2022/11/06 05:57:59;;;;;;;5.57;3.90;;;9.30;99.90;;;;;;5052514;28;20028;-30
2022/11/06 06:00:25;;;;;;;10.00;3.92;;;9.30;99.90;;;;;;5055793;28;20036;-35
2022/11/06 06:02:50;;;;;;;7.00;3.75;;;9.30;99.90;;;;;;5068185;28;20063;-32
2022/11/06 06:05:16;;;;;;;9.27;4.30;;;9.30;99.90;;;;;;5072665;28;20048;-32
2022/11/06 06:07:42;;;;;;;8.75;4.15;;;9.30;99.90;;;;;;5057355;28;20512;-33
2022/11/06 06:10:09;;;;;;;9.32;4.90;;;9.40;99.90;;;;;;5059766;28;20451;-32
2022/11/06 06:12:35;;;;;;;6.47;3.60;;;9.30;99.90;;;;;;5075501;28;20044;-31
2022/11/06 06:15:01;;;;;;;8.57;4.10;;;9.40;99.90;;;;;;5059368;28;20097;-31
2022/11/06 06:17:26;;;;;;;8.15;4.00;;;9.40;99.90;;;;;;5059120;28;20108;-31
2022/11/06 06:19:52;;;;;;;5.47;3.88;;;9.40;99.90;;;;;;5057411;28;20040;-33
2022/11/06 06:22:18;;;;;;;7.35;3.85;;;9.40;99.90;;;;;;5059182;28;20477;-31
2022/11/06 06:24:44;;;;;;;5.97;3.72;;;9.40;99.90;;;;;;5054239;28;20036;-31
2022/11/06 06:27:12;;;;;;;8.98;3.88;;;9.40;99.90;;;;;;5062211;28;20043;-34
2022/11/06 06:29:38;;;;;;;8.38;3.95;;;9.40;99.90;;;;;;5051011;28;20115;-34
2022/11/06 06:32:04;;;;;;;6.53;3.58;;;9.40;99.90;;;;;;5074338;28;20040;-32
2022/11/06 06:34:30;;;;;;;6.45;3.65;;;9.50;99.90;;;;;;5054495;28;20036;-32
2022/11/06 06:36:56;;;;;;;5.03;3.45;;;9.50;99.90;;;;;;5054530;28;20045;-32
2022/11/06 06:39:22;;;;;;;9.23;3.80;;;9.50;99.90;;;;;;5070193;28;20037;-33
2022/11/06 06:41:47;;;;;;;8.25;4.00;;;9.50;99.90;;;;;;5057491;28;20481;-33
2022/11/06 06:44:14;;;;;;;7.88;4.03;;;9.50;99.90;;;;;;5053693;28;20060;-32
2022/11/06 06:46:40;;;;;;;7.80;4.78;;;9.50;99.90;;;;;;5075763;28;20039;-32
2022/11/06 06:49:06;;;;;;;9.32;4.13;;;9.50;99.90;;;;;;5055322;28;20028;-31
2022/11/06 06:51:32;;;;;;;7.95;4.80;;;9.50;99.90;;;;;;5076813;28;20036;-32
2022/11/06 06:53:59;;;;;;;9.52;4.03;;;9.40;99.90;;;;;;5052046;28;20037;-32
2022/11/06 06:56:24;;;;;;;7.30;3.65;;;9.40;99.90;;;;;;5054027;28;20072;-32
2022/11/06 06:58:53;;;;;;;6.50;3.80;;;9.50;99.90;;;;;;5070585;28;20079;-31
2022/11/06 07:01:19;;;;;;;8.45;3.53;;;9.50;99.90;;;;;;5073115;28;20037;-31
2022/11/06 07:03:45;;;;;;;9.80;3.55;;;9.50;99.90;;;;;;5056799;28;20109;-33
2022/11/06 07:06:11;;;;;;;8.07;3.53;;;9.50;99.90;;;;;;5071825;28;20486;-31
2022/11/06 07:08:37;;;;;;;7.13;3.50;;;9.50;99.90;;;;;;5054152;28;20086;-31
2022/11/06 07:11:06;;;;;;;7.90;3.55;;;9.50;99.90;;;;;;5067611;28;20048;-31
2022/11/06 07:13:32;;;;;;;7.25;3.53;;;9.50;99.90;;;;;;5068037;28;20051;-31
2022/11/06 07:15:58;;;;;;;5.72;3.90;;;9.50;99.90;;;;;;5082875;28;20096;-33
2022/11/06 07:18:24;;;;;;;6.47;3.70;;;9.50;99.90;;;;;;5071973;28;20120;-32
2022/11/06 07:20:50;;;;;;;5.75;3.60;;;9.60;99.90;;;;;;5062472;28;20049;-33
2022/11/06 07:23:16;;;;;;;7.68;3.60;;;9.60;99.90;;;;;;5056807;28;20037;-31
2022/11/06 07:25:42;;;;;;;6.97;3.67;;;9.60;99.90;;;;;;5065121;28;20032;-31
2022/11/06 07:28:08;;;;;;;7.28;3.40;;;9.60;99.90;;;;;;5070126;28;20032;-31
2022/11/06 07:30:35;;;;;;;8.77;3.88;;;9.70;99.90;;;;;;5061613;28;20111;-31
2022/11/06 07:33:02;;;;;;;5.70;3.45;;;9.70;99.90;;;;;;5074498;28;20041;-33
2022/11/06 07:35:29;;;;;;;7.78;5.63;;;9.80;99.90;;;;;;5061780;28;20326;-31
2022/11/06 07:37:54;;;;;;;11.60;5.63;;;9.80;99.90;;;;;;5061946;28;20116;-31
2022/11/06 07:40:20;;;;;;;7.35;4.47;;;9.80;99.90;;;;;;5064300;28;20111;-32
2022/11/06 07:42:46;;;;;;;9.20;5.55;;;9.80;99.90;;;;;;5056895;28;20033;-32
2022/11/06 07:45:12;;;;;;;5.18;3.45;;;9.90;99.90;;;;;;5068787;28;20033;-32
2022/11/06 07:47:38;;;;;;;6.72;3.72;;;9.90;99.90;;;;;;5049736;28;20486;-33
2022/11/06 07:50:04;;;;;;;8.98;3.58;;;10.00;99.90;;;;;;5070757;28;20040;-32
2022/11/06 07:52:29;;;;;;;6.68;2.97;;;10.00;99.90;;;;;;5073035;28;20041;-33
2022/11/06 07:54:55;;;;;;;7.30;3.47;;;10.00;99.90;;;;;;5058248;28;20032;-32
2022/11/06 07:57:21;;;;;;;8.20;4.10;;;10.00;99.90;;;;;;5070686;28;20082;-32
2022/11/06 07:59:47;;;;;;;10.00;3.67;;;10.00;99.90;;;;;;5074144;28;20500;-31
2022/11/06 08:02:13;;;;;;;5.15;3.25;;;10.10;99.90;;;;;;5071290;28;20097;-33
2022/11/06 08:04:39;;;;;;;6.93;3.40;;;10.10;99.90;;;;;;5073745;28;20032;-34
2022/11/06 08:07:05;;;;;;;6.45;3.35;;;10.10;99.90;;;;;;5056783;28;20416;-32
2022/11/06 08:09:32;;;;;;;6.85;3.38;;;10.10;99.90;;;;;;5053189;28;20052;-32
2022/11/06 08:11:57;;;;;;;8.52;2.88;;;10.30;99.90;;;;;;5064653;28;20041;-32
2022/11/06 08:14:23;;;;;;;6.93;3.10;;;10.50;99.90;;;;;;5069523;28;20493;-32
2022/11/06 08:16:49;;;;;;;7.00;2.90;;;10.70;99.90;;;;;;5057238;28;20392;-32
2022/11/06 08:19:15;;;;;;;9.77;3.33;;;10.90;99.90;;;;;;5051898;28;20087;-32
2022/11/06 08:21:40;;;;;;;4.07;2.53;;;11.00;99.90;;;;;;5056853;28;20105;-30
2022/11/06 08:24:06;;;;;;;5.70;3.15;;;11.10;99.90;;;;;;5056711;28;20485;-32
2022/11/06 08:26:32;;;;;;;3.78;2.53;;;11.20;99.90;;;;;;5069003;28;20032;-32
2022/11/06 08:28:58;;;;;;;6.43;3.25;;;11.30;99.90;;;;;;5060600;28;20039;-32
2022/11/06 08:31:24;;;;;;;9.60;3.38;;;11.20;99.90;;;;;;5065507;28;20036;-31
2022/11/06 08:33:50;;;;;;;7.78;3.00;;;11.20;99.90;;;;;;5055470;28;20068;-30
2022/11/06 08:36:16;;;;;;;9.15;3.05;;;11.10;99.90;;;;;;5053313;28;20110;-31
2022/11/06 08:38:42;;;;;;;8.02;3.20;;;11.10;99.90;;;;;;5057221;28;20625;-32
2022/11/06 08:41:11;;;;;;;6.88;2.90;;;11.10;99.90;;;;;;5044486;28;20051;-32
2022/11/06 08:43:37;;;;;;;5.80;2.65;;;11.10;99.90;;;;;;5064432;28;20076;-31
2022/11/06 08:46:05;;;;;;;4.18;2.70;;;11.00;99.90;;;;;;5055350;28;20036;-31
2022/11/06 08:48:31;;;;;;;6.95;2.42;;;10.90;99.90;;;;;;5051660;28;20048;-32
2022/11/06 08:50:57;;;;;;;6.00;2.47;;;10.90;99.90;;;;;;5052557;28;20036;-32
2022/11/06 08:53:22;;;;;;;5.70;2.88;;;11.00;99.90;;;;;;5069712;28;20040;-32
2022/11/06 08:55:48;;;;;;;3.85;2.40;;;11.00;99.90;;;;;;5052985;28;20048;-31
2022/11/06 08:58:14;;;;;;;5.55;2.90;;;11.20;99.90;;;;;;5052951;28;20043;-32
2022/11/06 09:00:40;;;;;;;6.47;2.60;;;11.20;99.90;;;;;;5044410;28;20044;-33
2022/11/06 09:03:09;;;;;;;4.15;2.50;;;11.30;99.90;;;;;;5069623;28;20782;-31
2022/11/06 09:05:37;;;;;;;12.43;3.38;;;11.40;99.90;;;;;;5069019;28;20124;-31
2022/11/06 09:08:03;;;;;;;6.97;2.70;;;11.40;99.90;;;;;;5071625;28;20040;-32
2022/11/06 09:10:29;;;;;;;5.15;2.40;;;11.40;99.90;;;;;;5056136;28;20152;-31
2022/11/06 09:12:58;;;;;;;5.68;2.25;;;11.40;99.90;;;;;;5069511;28;20108;-31
2022/11/06 09:15:23;;;;;;;5.22;2.42;;;11.40;99.90;;;;;;5068747;28;20043;-31
2022/11/06 09:17:50;;;;;;;6.30;2.28;;;11.40;99.90;;;;;;5071806;28;20032;-33
2022/11/06 09:20:18;;;;;;;8.80;2.75;;;11.50;99.90;;;;;;5053652;28;20044;-31
2022/11/06 09:22:45;;;;;;;3.67;2.30;;;11.60;99.90;;;;;;5069046;28;20051;-35
2022/11/06 09:25:11;;;;;;;3.95;2.20;;;11.70;99.90;;;;;;5067642;28;20081;-31
2022/11/06 09:27:47;;;;;;;7.25;2.60;;;11.80;99.90;;;;;;5062361;28;20040;-32
2022/11/06 09:30:15;;;;;;;3.92;2.47;;;11.90;99.90;;;;;;5075531;28;20045;-31
2022/11/06 09:32:55;;;;;;;7.75;2.53;;;11.90;99.90;;;;;;5069325;28;20375;-33
2022/11/06 09:35:23;;;;;;;4.45;2.78;;;12.00;99.90;;;;;;5075318;28;20047;-33
2022/11/06 09:37:49;;;;;;;7.75;2.67;;;12.00;99.90;;;;;;5073730;28;20040;-33
2022/11/06 09:40:29;;;;;;;9.13;3.10;;;12.00;99.90;;;;;;5069173;28;20036;-31
2022/11/06 09:43:03;;;;;;;6.90;2.60;;;12.00;99.90;;;;;;5067630;28;20513;-31
2022/11/06 09:45:32;;;;;;;6.18;2.72;;;11.90;99.90;;;;;;5052102;28;20127;-31
2022/11/06 09:48:10;;;;;;;5.70;2.40;;;11.90;99.90;;;;;;5069705;28;20520;-34
2022/11/06 09:51:17;;;;;;;4.13;2.22;;;12.00;99.90;;;;;;5051870;28;20615;-32
2022/11/06 09:53:50;;;;;;;5.40;2.70;;;12.00;99.90;;;;;;5039592;28;20043;-32
2022/11/06 09:56:19;;;;;;;5.70;2.53;;;12.10;99.90;;;;;;5069344;28;20131;-33
2022/11/06 09:58:46;;;;;;;5.97;2.60;;;12.20;99.90;;;;;;5055442;28;20089;-33
2022/11/06 10:01:15;;;;;;;6.43;2.63;;;12.10;99.90;;;;;;5073790;28;20100;-30
2022/11/06 10:03:45;;;;;;;7.22;2.60;;;12.10;99.90;;;;;;5065415;28;20040;-30
2022/11/06 10:06:11;;;;;;;5.78;2.60;;;12.00;99.90;;;;;;5052209;28;20078;-31
2022/11/06 10:08:40;;;;;;;7.75;2.42;;;12.00;99.90;;;;;;5051598;28;20079;-31
2022/11/06 10:11:14;;;;;;;8.88;2.88;;;12.00;99.90;;;;;;5063056;28;20055;-30
2022/11/06 10:13:58;;;;;;;5.80;2.30;;;12.10;99.90;;;;;;5052904;28;20040;-30
2022/11/06 10:16:58;;;;;;;5.30;2.20;;;12.10;99.90;;;;;;5070142;28;20534;-34
2022/11/06 10:19:45;;;;;;;4.45;2.47;;;12.30;99.90;;;;;;5066040;28;20087;-31
2022/11/06 10:22:15;;;;;;;2.58;1.95;;;12.40;99.90;;;;;;5052434;28;20044;-32
2022/11/06 10:24:50;;;;;;;5.32;2.22;;;12.50;99.90;;;;;;5070772;28;20032;-31
2022/11/06 10:27:21;;;;;;;5.25;2.67;;;12.60;99.90;;;;;;5073076;28;20073;-31
2022/11/06 10:29:56;;;;;;;5.00;2.53;;;12.60;99.90;;;;;;5051277;28;20502;-33
2022/11/06 10:32:48;;;;;;;6.95;3.05;;;12.70;99.90;;;;;;5064598;28;20041;-31
2022/11/06 10:35:39;;;;;;;5.00;2.22;;;12.90;99.90;;;;;;5073292;28;20503;-32
2022/11/06 10:38:15;;;;;;;5.47;2.22;;;14.00;99.90;;;;;;5052608;28;20035;-34
2022/11/06 10:40:47;;;;;;;5.20;2.00;;;14.80;99.90;;;;;;5050446;28;20044;-33
2022/11/06 10:43:22;;;;;;;4.57;2.47;;;15.00;99.90;;;;;;5054849;28;20156;-31
2022/11/06 10:46:05;;;;;;;4.45;1.95;;;14.90;99.90;;;;;;5069029;28;20037;-33
2022/11/06 10:48:36;;;;;;;4.45;1.80;;;14.70;99.90;;;;;;5074945;28;20043;-33
2022/11/06 10:51:20;;;;;;;4.18;2.03;;;14.50;99.90;;;;;;5048230;28;20040;-30
2022/11/06 10:53:48;;;;;;;;;;;14.50;99.90;;;;;;5069616;28;20044;-32
2022/11/06 10:56:51;;;;;;;4.22;1.98;;;14.30;99.90;;;;;;5077413;28;19924;-31
2022/11/06 10:59:17;;;;;;;4.43;1.75;;;14.20;99.90;;;;;;5070637;28;20041;-31
2022/11/06 11:01:43;;;;;;;5.65;1.70;;;14.20;99.90;;;;;;5066843;28;20116;-33
2022/11/06 11:04:09;;;;;;;5.45;1.65;;;14.10;99.90;;;;;;5071328;28;20119;-31
2022/11/06 11:06:38;;;;;;;4.45;1.67;;;14.10;99.90;;;;;;5071226;28;20082;-32
2022/11/06 11:09:27;;;;;;;6.18;2.47;;;14.10;99.90;;;;;;5068446;28;20033;-32
2022/11/06 11:11:53;;;;;;;5.25;2.08;;;14.10;99.90;;;;;;5070048;28;20444;-32
2022/11/06 11:14:28;;;;;;;3.95;2.00;;;14.20;99.90;;;;;;5056492;28;20033;-32
2022/11/06 11:16:57;;;;;;;6.10;2.33;;;14.30;99.90;;;;;;5068400;28;20283;-31
2022/11/06 11:19:38;;;;;;;4.18;2.13;;;14.50;99.90;;;;;;5063384;28;20035;-31
2022/11/06 11:22:18;;;;;;;4.68;2.17;;;14.80;99.90;;;;;;5053175;28;20068;-32
2022/11/06 11:25:22;;;;;;;5.85;1.85;;;15.00;99.90;;;;;;5053886;28;20040;-33
2022/11/06 11:27:48;;;;;;;3.42;1.45;;;14.80;99.90;;;;;;5072676;28;20056;-33
2022/11/06 11:30:25;;;;;;;3.70;1.67;;;14.60;99.90;;;;;;5056273;28;20047;-32
2022/11/06 11:32:52;;;;;;;3.83;1.83;;;14.40;99.90;;;;;;5050546;28;20033;-33
2022/11/06 11:35:30;;;;;;;4.00;1.58;;;14.20;99.90;;;;;;5073866;28;20338;-33
2022/11/06 11:38:10;;;;;;;3.72;1.58;;;14.20;99.90;;;;;;5071812;28;20064;-32
2022/11/06 11:40:38;;;;;;;4.10;1.60;;;14.20;99.90;;;;;;5070055;28;20119;-33
2022/11/06 11:43:23;;;;;;;9.50;2.05;;;14.10;99.90;;;;;;5075694;28;20535;-31
2022/11/06 11:46:19;;;;;;;4.50;2.00;;;14.10;99.90;;;;;;5068219;28;20397;-32
2022/11/06 11:48:49;;;;;;;5.55;1.80;;;13.90;99.90;;;;;;5069187;28;20085;-31
2022/11/06 11:51:18;;;;;;;4.65;2.33;;;13.70;99.90;;;;;;5071875;28;20032;-32
2022/11/06 11:53:43;;;;;;;7.78;2.72;;;13.70;99.90;;;;;;5051848;28;20418;-33
2022/11/06 11:56:18;;;;;;;4.57;2.08;;;13.60;99.90;;;;;;5070425;28;20029;-32
2022/11/06 11:58:54;;;;;;;3.85;2.05;;;13.50;99.90;;;;;;5034836;28;20494;-32
2022/11/06 12:01:34;;;;;;;4.60;1.98;;;13.50;99.90;;;;;;5069583;28;20036;-32
2022/11/06 12:04:00;;;;;;;4.97;2.10;;;13.50;99.90;;;;;;5053467;28;20038;-31
2022/11/06 12:06:26;;;;;;;4.32;2.10;;;13.60;99.90;;;;;;5072242;28;20051;-32
2022/11/06 12:08:53;;;;;;;3.85;2.13;;;13.70;99.90;;;;;;5070371;28;20040;-32
2022/11/06 12:11:29;;;;;;;4.13;2.03;;;13.70;99.90;;;;;;5070954;28;20032;-33
2022/11/06 12:14:29;;;;;;;5.82;2.50;;;13.80;99.90;;;;;;5069096;28;20063;-32
2022/11/06 12:17:04;;;;;;;2.65;1.95;;;13.90;99.90;;;;;;5070106;28;20461;-32
2022/11/06 12:19:33;;;;;;;3.35;1.88;;;13.90;99.90;;;;;;5053216;28;20041;-31
2022/11/06 12:22:05;;;;;;;6.18;2.65;;;13.90;99.90;;;;;;5057504;28;20040;-34
2022/11/06 12:24:46;;;;;;;6.47;2.83;;;13.90;99.90;;;;;;5071823;28;20033;-31
2022/11/06 12:27:21;;;;;;;3.60;2.38;;;13.70;99.90;;;;;;5055227;28;20071;-32
2022/11/06 12:29:49;;;;;;;4.82;2.50;;;13.70;99.90;;;;;;5052309;28;20041;-32
2022/11/06 12:32:38;;;;;;;6.05;2.50;;;13.70;99.90;;;;;;5052930;28;20123;-34
2022/11/06 12:35:21;;;;;;;5.78;3.05;;;13.70;99.90;;;;;;5068071;28;20082;-32
2022/11/06 12:38:05;;;;;;;5.97;3.00;;;13.80;99.90;;;;;;5065737;28;20592;-32
2022/11/06 12:40:37;;;;;;;4.95;3.30;;;13.70;99.90;;;;;;5068074;28;20410;-32
2022/11/06 12:43:48;;;;;;;4.00;2.50;;;13.60;99.90;;;;;;5053131;28;20094;-31
2022/11/06 12:47:01;;;;;;;6.68;2.38;;;13.60;99.90;;;;;;4985927;28;20392;-31
2022/11/06 12:49:48;;;;;;;4.38;2.40;;;13.40;99.90;;;;;;4909228;29;20055;-31
2022/11/06 12:52:40;;;;;;;4.13;2.03;;;13.40;99.90;;;;;;5032449;28;20450;-32
2022/11/06 12:55:34;;;;;;;3.25;2.20;;;13.30;99.90;;;;;;5066273;28;20493;-31
2022/11/06 12:58:16;;;;;;;5.70;2.40;;;13.20;99.90;;;;;;5065777;28;20120;-31
2022/11/06 13:00:56;;;;;;;2.30;1.90;;;13.20;99.90;;;;;;5066056;28;20090;-31
2022/11/06 13:03:40;;;;;;;3.67;2.13;;;13.10;99.90;;;;;;5065492;28;20119;-31
2022/11/06 13:06:15;;;;;;;5.80;2.65;;;13.10;99.90;;;;;;5067495;28;20143;-32
2022/11/06 13:09:22;;;;;;;3.85;1.90;;;13.20;99.90;;;;;;5067275;28;20047;-31
2022/11/06 13:12:01;;;;;;;4.90;2.20;;;13.10;99.90;;;;;;5057962;28;20060;-31
2022/11/06 13:14:37;;;;;;;6.25;2.22;;;13.10;99.90;;;;;;5049401;28;20037;-32
2022/11/06 13:17:15;;;;;;;4.78;1.80;;;13.00;99.90;;;;;;5067547;28;20466;-32
2022/11/06 13:19:46;;;;;;;6.05;1.83;;;13.00;99.90;;;;;;5052906;28;20033;-32
2022/11/06 13:22:33;;;;;;;5.38;1.80;;;13.00;99.90;;;;;;5051839;28;20040;-32
2022/11/06 13:25:14;;;;;;;6.75;2.70;;;13.00;99.90;;;;;;5047582;28;20033;-32
2022/11/06 13:27:49;;;;;;;5.47;2.20;;;12.90;99.90;;;;;;5063653;28;20063;-32
2022/11/06 13:30:18;;;;;;;6.85;2.88;;;12.90;99.90;;;;;;5066400;28;20080;-32